• Join FlightAware (Why Join?)
  • Login
  • US Flag 
10:56AM EDT


 

Airport Tracker/Info


-or-


 

Live Flight TrackerFlight Track Log ✈ JBU56 ✈ 25-Jul-2013 ✈ KIAD - KBOS

Flight Track Log - Related Links

Times and Time Zones

All times are in EDT time to prevent confusion due to time zone crossing. See the JBU56 flight status page for this flight to view local times or setup timezone preferences in your user account.

Time Position Orientation Groundspeed Altitude Reporting Facility
EDT Latitude Longitude Course Direction KTS MPH feet Rate Location/Type
09:07AM 38.9500 -77.5000 78° East 159 183 1,700  Level Potomac TRACON
09:08AM 39.0000 -77.5333 333° Northwest 214 246 3,500 2,100 Climbing Potomac TRACON
09:09AM 39.0068 -77.0792 77° East  Level FlightAware Approximate
09:09AM 39.0500 -77.5667 333° Northwest 254 292 5,800  Level Potomac TRACON
09:10AM 39.0229 -76.9907 77° East  Level FlightAware Approximate
09:10AM 39.1167 -77.5167 30° Northeast 299 344 9,100  Level Potomac TRACON
09:11AM 39.0386 -76.9019 78° East  Level FlightAware Approximate
09:11AM 39.1667 -77.4333 52° Northeast 333 383 10,000  Level Potomac TRACON
09:12AM 39.0534 -76.8130 78° East  Level FlightAware Approximate
09:12AM 39.1500 -77.3000 99° East 349 402 10,000  Level Potomac TRACON
09:13AM 39.1167 -77.1833 110° East 344 396 11,200 1,860 Climbing Potomac TRACON
09:15AM 39.0761 -77.0033 106° East 368 423 15,000 2,400 Climbing Washington Center
09:16AM 39.0839 -76.8672 86° East 368 423 17,400 2,100 Climbing Washington Center
09:17AM 39.0978 -76.7203 83° East 378 435 19,300 2,100 Climbing Washington Center
09:18AM 39.1053 -76.5678 86° East 391 450 21,700 1,800 Climbing Washington Center
09:19AM 39.1292 -76.4372 77° East 396 456 23,000 600 Climbing Washington Center
09:20AM 39.1428 -76.2928 83° East 396 456 23,000  Level Washington Center
09:21AM 39.1622 -76.1322 81° East 408 470 23,100 780 Climbing Washington Center
09:22AM 39.2192 -75.9961 62° Northeast 402 463 24,600 1,320 Climbing Washington Center
09:23AM 39.3006 -75.8786 48° Northeast 410 472 25,800 1,200 Climbing Washington Center
09:24AM 39.3842 -75.7528 49° Northeast 429 494 27,000 1,080 Climbing Washington Center
09:25AM 39.4678 -75.6264 49° Northeast 450 518 28,000 1,020 Climbing Washington Center
09:26AM 39.5531 -75.5000 49° Northeast 456 525 29,100 1,320 Climbing Washington Center
09:27AM 39.6364 -75.3706 50° Northeast 461 531 30,700 840 Climbing Washington Center
09:28AM 39.7233 -75.2408 49° Northeast 461 531 30,900 120 Climbing Washington Center
09:29AM 39.8042 -75.1081 52° Northeast 489 563 31,000  Climbing Washington Center
09:31AM 40.0206 -74.7769 49° Northeast 529 609 31,000  Level New York Center
09:32AM 40.1042 -74.6461 50° Northeast 519 597 31,000  Level New York Center
09:33AM 40.2114 -74.4892 48° Northeast 514 592 31,000  Level New York Center
09:34AM 40.3156 -74.3558 44° Northeast 519 597 31,000  Level New York Center
09:35AM 40.4053 -74.2053 52° Northeast 519 597 31,000 -120 Level New York Center
09:36AM 40.4950 -74.0594 51° Northeast 519 597 30,800 -1,260 Descending New York Center
09:37AM 40.6417 -73.8075 52° Northeast 520 598 27,800 -1,920 Descending Boston Center
09:38AM 40.7267 -73.6614 52° Northeast 509 586 25,900 -1,740 Descending Boston Center
09:39AM 40.7922 -73.5531 51° Northeast 495 570 24,400 -960 Descending Boston Center
09:40AM 40.8897 -73.3928 51° Northeast 472 543 24,000 -300 Descending Boston Center
09:41AM 40.9761 -73.2703 47° Northeast 462 532 23,900 -600 Descending Boston Center
09:42AM 41.0644 -73.1422 48° Northeast 462 532 22,900 -1,020 Descending Boston Center
09:43AM 41.1464 -73.0161 49° Northeast 462 532 21,900 -960 Descending Boston Center
09:44AM 41.2219 -72.8981 50° Northeast 446 513 21,000 -480 Descending Boston Center
09:45AM 41.2661 -72.7908 61° Northeast 429 494 21,000  Level Boston Center
09:46AM 41.3269 -72.6253 64° Northeast 406 467 21,000  Level Boston Center
09:47AM 41.3708 -72.5064 64° Northeast 399 459 21,000 -120 Level Boston Center
09:48AM 41.4208 -72.3681 64° Northeast 384 442 20,800 -600 Descending Boston Center
09:49AM 41.4667 -72.2433 64° Northeast 379 436 19,800 -960 Descending Boston Center
09:50AM 41.5164 -72.1158 62° Northeast 374 430 18,900 -1,020 Descending Boston Center
09:51AM 41.5575 -71.9961 65° Northeast 358 412 17,800 -1,200 Descending Boston Center
09:52AM 41.5925 -71.8767 69° East 353 406 16,500 -1,560 Descending Boston Center
09:53AM 41.6022 -71.7572 84° East 330 380 14,700 -1,560 Descending Boston Center
09:55AM 41.5911 -71.6381 97° East 324 373 13,100 -1,560 Descending Boston Center
09:56AM 41.6569 -71.5258 52° Northeast 296 341 11,300 -1,080 Descending Boston Center
09:57AM 41.7164 -71.4333 49° Northeast 315 362 11,000 -180 Descending Boston Center
09:58AM 41.7614 -71.3297 60° Northeast 321 369 11,000  Level Boston Center
09:59AM 41.8000 -71.2342 62° Northeast 298 343 11,000 -420 Level Boston Center
10:00AM 41.8344 -71.1444 63° Northeast 281 323 10,200 -960 Descending Boston Center
10:01AM 41.8731 -71.0656 57° Northeast 258 297 9,100 -1,080 Descending Boston Center
10:02AM 41.9297 -71.0894 343° North 187 215 8,100 -1,020 Descending Boston Center
10:03AM 41.9556 -71.1728 293° West 212 244 7,100 -900 Descending Boston Center
10:04AM 41.9917 -71.2306 310° West 221 254 6,400 -600 Descending Boston Center
10:05AM 42.0328 -71.1711 47° Northeast 128 147 6,000 -360 Descending Boston Center
10:06AM 42.0742 -71.1450 25° Northeast 169 194 5,700 -780 Descending Boston Center
10:07AM 42.1383 -71.1131 20° North 204 235 4,500 -1,080 Descending Boston Center
10:08AM 42.1839 -71.0925 18° North 192 221 3,600 -900 Descending Boston Center
10:09AM 42.2233 -71.0719 21° North 159 183 2,700 -840 Descending Boston Center
10:10AM 42.2606 -71.0542 19° North 143 165 2,000 -780 Descending Boston Center
10:11AM 42.3167 -71.0333 15° North 138 159 900 -780 Descending KA90
10:12AM 42.3500 -71.0167 20° North 135 155 400 -660 Descending KA90